sensor_id;sensor_type;location;lat;lon;timestamp;P1;durP1;ratioP1;P2;durP2;ratioP2
63114;SDS011;49208;50.874;6.466;2024-02-26T07:03:00;4.40;;;2.10;;
63114;SDS011;49208;50.874;6.466;2024-02-26T07:05:26;5.10;;;1.70;;
63114;SDS011;49208;50.874;6.466;2024-02-26T07:07:52;4.20;;;2.03;;
63114;SDS011;49208;50.874;6.466;2024-02-26T07:10:18;3.40;;;1.70;;
63114;SDS011;49208;50.874;6.466;2024-02-26T07:12:43;5.38;;;1.70;;
63114;SDS011;49208;50.874;6.466;2024-02-26T07:15:09;4.05;;;1.85;;
63114;SDS011;49208;50.874;6.466;2024-02-26T07:17:35;3.33;;;1.73;;
63114;SDS011;49208;50.874;6.466;2024-02-26T07:20:01;4.97;;;1.90;;
63114;SDS011;49208;50.874;6.466;2024-02-26T07:22:29;4.03;;;1.85;;
63114;SDS011;49208;50.874;6.466;2024-02-26T07:24:55;5.15;;;1.98;;
63114;SDS011;49208;50.874;6.466;2024-02-26T07:27:20;3.72;;;1.95;;
63114;SDS011;49208;50.874;6.466;2024-02-26T07:29:46;4.38;;;2.42;;
63114;SDS011;49208;50.874;6.466;2024-02-26T07:32:11;3.83;;;2.10;;
63114;SDS011;49208;50.874;6.466;2024-02-26T07:34:37;4.75;;;2.45;;
63114;SDS011;49208;50.874;6.466;2024-02-26T07:37:06;6.57;;;2.10;;
63114;SDS011;49208;50.874;6.466;2024-02-26T07:39:32;5.28;;;2.25;;
63114;SDS011;49208;50.874;6.466;2024-02-26T07:41:57;5.10;;;2.35;;
63114;SDS011;49208;50.874;6.466;2024-02-26T07:44:22;4.47;;;2.42;;
63114;SDS011;49208;50.874;6.466;2024-02-26T07:46:48;5.32;;;2.55;;
63114;SDS011;49208;50.874;6.466;2024-02-26T07:49:13;4.82;;;1.92;;
63114;SDS011;49208;50.874;6.466;2024-02-26T07:51:39;5.85;;;2.92;;
63114;SDS011;49208;50.874;6.466;2024-02-26T07:54:04;4.93;;;1.85;;
63114;SDS011;49208;50.874;6.466;2024-02-26T07:56:30;4.22;;;2.40;;
63114;SDS011;49208;50.874;6.466;2024-02-26T07:58:55;5.82;;;2.22;;
63114;SDS011;49208;50.874;6.466;2024-02-26T08:01:21;4.88;;;2.22;;
63114;SDS011;49208;50.874;6.466;2024-02-26T08:03:48;4.03;;;1.98;;
63114;SDS011;49208;50.874;6.466;2024-02-26T08:06:16;4.35;;;2.25;;
63114;SDS011;49208;50.874;6.466;2024-02-26T08:08:41;4.30;;;2.03;;
63114;SDS011;49208;50.874;6.466;2024-02-26T08:11:06;4.28;;;2.10;;
63114;SDS011;49208;50.874;6.466;2024-02-26T08:13:33;4.75;;;2.40;;
63114;SDS011;49208;50.874;6.466;2024-02-26T08:15:59;4.95;;;2.47;;
63114;SDS011;49208;50.874;6.466;2024-02-26T08:18:24;6.60;;;2.15;;
63114;SDS011;49208;50.874;6.466;2024-02-26T08:20:50;6.03;;;2.67;;
63114;SDS011;49208;50.874;6.466;2024-02-26T08:23:17;4.03;;;2.03;;
63114;SDS011;49208;50.874;6.466;2024-02-26T08:25:42;4.70;;;2.55;;
63114;SDS011;49208;50.874;6.466;2024-02-26T08:28:08;4.97;;;2.55;;
63114;SDS011;49208;50.874;6.466;2024-02-26T08:30:33;5.32;;;2.42;;
63114;SDS011;49208;50.874;6.466;2024-02-26T08:32:59;5.63;;;2.80;;
63114;SDS011;49208;50.874;6.466;2024-02-26T08:35:24;6.18;;;3.03;;
63114;SDS011;49208;50.874;6.466;2024-02-26T08:37:50;3.90;;;2.30;;
63114;SDS011;49208;50.874;6.466;2024-02-26T08:40:15;7.15;;;2.65;;
63114;SDS011;49208;50.874;6.466;2024-02-26T08:42:41;4.85;;;2.45;;
63114;SDS011;49208;50.874;6.466;2024-02-26T08:45:07;5.38;;;2.63;;
63114;SDS011;49208;50.874;6.466;2024-02-26T08:47:33;5.22;;;2.53;;
63114;SDS011;49208;50.874;6.466;2024-02-26T08:49:59;5.40;;;2.70;;
63114;SDS011;49208;50.874;6.466;2024-02-26T08:52:24;5.25;;;2.70;;
63114;SDS011;49208;50.874;6.466;2024-02-26T08:54:49;6.45;;;2.88;;
63114;SDS011;49208;50.874;6.466;2024-02-26T08:57:15;5.20;;;2.50;;
63114;SDS011;49208;50.874;6.466;2024-02-26T08:59:40;4.53;;;2.55;;
63114;SDS011;49208;50.874;6.466;2024-02-26T09:02:07;5.80;;;2.97;;
63114;SDS011;49208;50.874;6.466;2024-02-26T09:04:34;5.10;;;2.80;;
63114;SDS011;49208;50.874;6.466;2024-02-26T09:07:00;5.00;;;2.67;;
63114;SDS011;49208;50.874;6.466;2024-02-26T09:09:26;5.03;;;2.10;;
63114;SDS011;49208;50.874;6.466;2024-02-26T09:11:51;5.57;;;2.75;;
63114;SDS011;49208;50.874;6.466;2024-02-26T09:14:17;5.55;;;2.45;;
63114;SDS011;49208;50.874;6.466;2024-02-26T09:16:43;6.00;;;2.60;;
63114;SDS011;49208;50.874;6.466;2024-02-26T09:19:08;7.90;;;2.63;;
63114;SDS011;49208;50.874;6.466;2024-02-26T09:21:34;5.85;;;2.55;;
63114;SDS011;49208;50.874;6.466;2024-02-26T09:23:59;4.70;;;2.72;;
63114;SDS011;49208;50.874;6.466;2024-02-26T09:26:25;5.47;;;2.35;;
63114;SDS011;49208;50.874;6.466;2024-02-26T09:28:50;4.90;;;2.80;;
63114;SDS011;49208;50.874;6.466;2024-02-26T09:31:17;5.57;;;3.20;;
63114;SDS011;49208;50.874;6.466;2024-02-26T09:33:43;5.10;;;2.45;;
63114;SDS011;49208;50.874;6.466;2024-02-26T09:36:08;4.85;;;2.58;;
63114;SDS011;49208;50.874;6.466;2024-02-26T09:38:36;4.43;;;2.92;;
63114;SDS011;49208;50.874;6.466;2024-02-26T09:41:03;5.03;;;2.78;;
63114;SDS011;49208;50.874;6.466;2024-02-26T09:43:32;4.63;;;2.70;;
63114;SDS011;49208;50.874;6.466;2024-02-26T09:46:01;4.40;;;2.78;;
63114;SDS011;49208;50.874;6.466;2024-02-26T09:48:27;4.78;;;2.50;;
63114;SDS011;49208;50.874;6.466;2024-02-26T09:50:54;5.07;;;2.95;;
63114;SDS011;49208;50.874;6.466;2024-02-26T09:53:19;4.35;;;2.60;;
63114;SDS011;49208;50.874;6.466;2024-02-26T09:55:47;5.75;;;2.70;;
63114;SDS011;49208;50.874;6.466;2024-02-26T09:58:12;5.07;;;3.15;;
63114;SDS011;49208;50.874;6.466;2024-02-26T10:00:43;5.88;;;2.88;;
63114;SDS011;49208;50.874;6.466;2024-02-26T10:03:16;6.22;;;2.40;;
63114;SDS011;49208;50.874;6.466;2024-02-26T10:05:44;4.75;;;2.53;;
63114;SDS011;49208;50.874;6.466;2024-02-26T10:08:10;7.70;;;3.22;;
63114;SDS011;49208;50.874;6.466;2024-02-26T10:10:37;4.40;;;2.35;;
63114;SDS011;49208;50.874;6.466;2024-02-26T10:13:04;5.72;;;2.65;;
63114;SDS011;49208;50.874;6.466;2024-02-26T10:15:35;4.53;;;2.75;;
63114;SDS011;49208;50.874;6.466;2024-02-26T10:18:03;4.07;;;2.38;;
63114;SDS011;49208;50.874;6.466;2024-02-26T10:20:29;6.28;;;2.80;;
63114;SDS011;49208;50.874;6.466;2024-02-26T10:22:56;4.63;;;2.50;;
63114;SDS011;49208;50.874;6.466;2024-02-26T10:25:22;7.05;;;2.90;;
63114;SDS011;49208;50.874;6.466;2024-02-26T10:27:47;4.43;;;2.50;;
63114;SDS011;49208;50.874;6.466;2024-02-26T10:30:20;6.53;;;2.83;;
63114;SDS011;49208;50.874;6.466;2024-02-26T10:32:47;6.07;;;2.65;;
63114;SDS011;49208;50.874;6.466;2024-02-26T10:35:14;4.45;;;2.30;;
63114;SDS011;49208;50.874;6.466;2024-02-26T10:37:40;3.83;;;2.00;;
63114;SDS011;49208;50.874;6.466;2024-02-26T10:40:09;4.97;;;2.25;;
63114;SDS011;49208;50.874;6.466;2024-02-26T10:42:35;5.22;;;2.58;;
63114;SDS011;49208;50.874;6.466;2024-02-26T10:45:01;6.20;;;2.67;;
63114;SDS011;49208;50.874;6.466;2024-02-26T10:47:27;5.00;;;2.35;;
63114;SDS011;49208;50.874;6.466;2024-02-26T10:49:54;3.73;;;2.20;;
63114;SDS011;49208;50.874;6.466;2024-02-26T10:52:20;5.30;;;2.17;;
63114;SDS011;49208;50.874;6.466;2024-02-26T10:57:15;4.60;;;2.45;;
63114;SDS011;49208;50.874;6.466;2024-02-26T10:59:43;5.40;;;2.80;;
63114;SDS011;49208;50.874;6.466;2024-02-26T11:02:09;5.88;;;2.70;;
63114;SDS011;49208;50.874;6.466;2024-02-26T11:04:37;5.43;;;2.45;;
63114;SDS011;49208;50.874;6.466;2024-02-26T11:07:03;7.35;;;2.63;;
63114;SDS011;49208;50.874;6.466;2024-02-26T11:09:29;4.75;;;2.38;;
63114;SDS011;49208;50.874;6.466;2024-02-26T11:11:57;4.28;;;2.70;;
63114;SDS011;49208;50.874;6.466;2024-02-26T11:14:24;5.00;;;2.47;;
63114;SDS011;49208;50.874;6.466;2024-02-26T11:16:51;5.45;;;2.88;;
63114;SDS011;49208;50.874;6.466;2024-02-26T11:19:17;4.45;;;2.63;;
63114;SDS011;49208;50.874;6.466;2024-02-26T11:21:43;3.75;;;2.30;;
63114;SDS011;49208;50.874;6.466;2024-02-26T11:24:12;5.55;;;2.50;;
63114;SDS011;49208;50.874;6.466;2024-02-26T11:26:40;5.20;;;2.75;;
63114;SDS011;49208;50.874;6.466;2024-02-26T11:29:10;5.55;;;2.72;;
63114;SDS011;49208;50.874;6.466;2024-02-26T11:31:38;4.03;;;2.10;;
63114;SDS011;49208;50.874;6.466;2024-02-26T11:34:06;4.40;;;2.35;;
63114;SDS011;49208;50.874;6.466;2024-02-26T11:36:33;4.65;;;1.98;;
63114;SDS011;49208;50.874;6.466;2024-02-26T11:39:00;6.85;;;2.60;;
63114;SDS011;49208;50.874;6.466;2024-02-26T11:41:25;4.45;;;2.60;;
63114;SDS011;49208;50.874;6.466;2024-02-26T11:44:01;5.65;;;2.60;;
63114;SDS011;49208;50.874;6.466;2024-02-26T11:46:49;6.22;;;2.88;;
63114;SDS011;49208;50.874;6.466;2024-02-26T11:49:30;4.80;;;2.65;;
63114;SDS011;49208;50.874;6.466;2024-02-26T11:51:57;5.60;;;2.83;;
63114;SDS011;49208;50.874;6.466;2024-02-26T11:54:38;5.55;;;2.58;;
63114;SDS011;49208;50.874;6.466;2024-02-26T12:00:14;5.22;;;2.70;;
63114;SDS011;49208;50.874;6.466;2024-02-26T12:02:49;5.63;;;2.88;;
63114;SDS011;49208;50.874;6.466;2024-02-26T12:05:30;4.97;;;2.72;;
63114;SDS011;49208;50.874;6.466;2024-02-26T12:08:00;6.60;;;2.90;;
63114;SDS011;49208;50.874;6.466;2024-02-26T12:10:32;4.72;;;3.05;;
63114;SDS011;49208;50.874;6.466;2024-02-26T12:13:21;7.40;;;3.08;;
63114;SDS011;49208;50.874;6.466;2024-02-26T12:15:55;11.18;;;2.97;;
63114;SDS011;49208;50.874;6.466;2024-02-26T12:18:22;5.82;;;2.95;;
63114;SDS011;49208;50.874;6.466;2024-02-26T12:20:57;7.68;;;2.72;;
63114;SDS011;49208;50.874;6.466;2024-02-26T12:23:24;5.55;;;3.00;;
63114;SDS011;49208;50.874;6.466;2024-02-26T12:25:50;7.75;;;3.13;;
63114;SDS011;49208;50.874;6.466;2024-02-26T12:28:15;5.63;;;3.53;;
63114;SDS011;49208;50.874;6.466;2024-02-26T12:30:40;6.65;;;3.35;;
63114;SDS011;49208;50.874;6.466;2024-02-26T12:33:06;5.72;;;3.17;;
63114;SDS011;49208;50.874;6.466;2024-02-26T12:35:33;6.28;;;3.05;;
63114;SDS011;49208;50.874;6.466;2024-02-26T12:38:00;6.50;;;3.37;;
63114;SDS011;49208;50.874;6.466;2024-02-26T12:40:25;6.82;;;3.15;;
63114;SDS011;49208;50.874;6.466;2024-02-26T12:42:52;6.35;;;2.95;;
63114;SDS011;49208;50.874;6.466;2024-02-26T12:45:20;5.85;;;3.10;;
63114;SDS011;49208;50.874;6.466;2024-02-26T12:47:45;6.10;;;3.67;;
63114;SDS011;49208;50.874;6.466;2024-02-26T12:50:11;6.03;;;3.20;;
63114;SDS011;49208;50.874;6.466;2024-02-26T12:52:41;6.75;;;3.45;;
63114;SDS011;49208;50.874;6.466;2024-02-26T12:55:09;6.93;;;3.45;;
63114;SDS011;49208;50.874;6.466;2024-02-26T12:57:39;8.23;;;3.75;;
63114;SDS011;49208;50.874;6.466;2024-02-26T13:00:08;6.75;;;3.50;;
63114;SDS011;49208;50.874;6.466;2024-02-26T13:02:37;7.28;;;3.65;;
63114;SDS011;49208;50.874;6.466;2024-02-26T13:05:04;7.00;;;4.22;;
63114;SDS011;49208;50.874;6.466;2024-02-26T13:07:32;6.07;;;3.72;;
63114;SDS011;49208;50.874;6.466;2024-02-26T13:09:59;5.97;;;3.45;;
63114;SDS011;49208;50.874;6.466;2024-02-26T13:12:25;5.75;;;3.47;;
63114;SDS011;49208;50.874;6.466;2024-02-26T13:15:03;5.47;;;3.42;;
63114;SDS011;49208;50.874;6.466;2024-02-26T13:17:32;6.72;;;3.55;;
63114;SDS011;49208;50.874;6.466;2024-02-26T13:19:58;6.75;;;4.00;;
63114;SDS011;49208;50.874;6.466;2024-02-26T13:22:23;6.03;;;3.97;;
63114;SDS011;49208;50.874;6.466;2024-02-26T13:24:55;6.38;;;3.45;;
63114;SDS011;49208;50.874;6.466;2024-02-26T13:27:22;5.55;;;3.65;;
63114;SDS011;49208;50.874;6.466;2024-02-26T13:29:48;6.97;;;3.70;;
63114;SDS011;49208;50.874;6.466;2024-02-26T13:32:13;7.95;;;3.90;;
63114;SDS011;49208;50.874;6.466;2024-02-26T13:34:39;7.97;;;3.65;;
63114;SDS011;49208;50.874;6.466;2024-02-26T13:37:04;7.05;;;3.38;;
63114;SDS011;49208;50.874;6.466;2024-02-26T13:39:30;6.90;;;3.40;;
63114;SDS011;49208;50.874;6.466;2024-02-26T13:41:56;6.75;;;3.30;;
63114;SDS011;49208;50.874;6.466;2024-02-26T13:44:22;6.45;;;3.03;;
63114;SDS011;49208;50.874;6.466;2024-02-26T13:46:49;5.22;;;3.47;;
63114;SDS011;49208;50.874;6.466;2024-02-26T13:49:15;5.43;;;3.03;;
63114;SDS011;49208;50.874;6.466;2024-02-26T13:51:40;6.25;;;3.13;;
63114;SDS011;49208;50.874;6.466;2024-02-26T13:54:06;4.95;;;3.33;;
63114;SDS011;49208;50.874;6.466;2024-02-26T13:56:32;7.25;;;3.60;;
63114;SDS011;49208;50.874;6.466;2024-02-26T13:58:57;7.38;;;3.15;;
63114;SDS011;49208;50.874;6.466;2024-02-26T14:01:23;5.60;;;3.28;;
63114;SDS011;49208;50.874;6.466;2024-02-26T14:03:49;6.53;;;3.60;;
63114;SDS011;49208;50.874;6.466;2024-02-26T14:06:15;6.68;;;4.28;;
63114;SDS011;49208;50.874;6.466;2024-02-26T14:08:40;10.70;;;4.80;;
63114;SDS011;49208;50.874;6.466;2024-02-26T14:11:05;10.57;;;4.95;;
63114;SDS011;49208;50.874;6.466;2024-02-26T14:13:31;10.55;;;6.03;;
63114;SDS011;49208;50.874;6.466;2024-02-26T14:15:56;7.97;;;4.85;;
63114;SDS011;49208;50.874;6.466;2024-02-26T14:18:22;8.20;;;4.70;;
63114;SDS011;49208;50.874;6.466;2024-02-26T14:20:47;9.65;;;4.63;;
63114;SDS011;49208;50.874;6.466;2024-02-26T14:23:14;9.95;;;4.60;;
63114;SDS011;49208;50.874;6.466;2024-02-26T14:25:39;8.45;;;4.95;;
63114;SDS011;49208;50.874;6.466;2024-02-26T14:28:04;8.27;;;4.80;;
63114;SDS011;49208;50.874;6.466;2024-02-26T14:30:30;8.45;;;4.78;;
63114;SDS011;49208;50.874;6.466;2024-02-26T14:32:55;8.75;;;4.90;;
63114;SDS011;49208;50.874;6.466;2024-02-26T14:35:21;9.90;;;4.90;;
63114;SDS011;49208;50.874;6.466;2024-02-26T14:37:46;10.43;;;4.97;;
63114;SDS011;49208;50.874;6.466;2024-02-26T14:40:13;9.15;;;5.10;;
63114;SDS011;49208;50.874;6.466;2024-02-26T14:42:39;10.05;;;5.38;;
63114;SDS011;49208;50.874;6.466;2024-02-26T14:45:05;10.32;;;6.75;;
63114;SDS011;49208;50.874;6.466;2024-02-26T14:47:33;13.02;;;7.68;;
63114;SDS011;49208;50.874;6.466;2024-02-26T14:49:59;13.52;;;7.85;;
63114;SDS011;49208;50.874;6.466;2024-02-26T14:52:25;14.27;;;8.88;;
63114;SDS011;49208;50.874;6.466;2024-02-26T14:54:50;14.30;;;7.97;;
63114;SDS011;49208;50.874;6.466;2024-02-26T14:57:17;16.60;;;9.35;;
63114;SDS011;49208;50.874;6.466;2024-02-26T14:59:42;14.20;;;8.85;;
63114;SDS011;49208;50.874;6.466;2024-02-26T15:02:09;14.93;;;8.93;;
63114;SDS011;49208;50.874;6.466;2024-02-26T15:04:35;17.33;;;8.52;;
63114;SDS011;49208;50.874;6.466;2024-02-26T15:07:01;15.35;;;8.95;;
63114;SDS011;49208;50.874;6.466;2024-02-26T15:09:26;19.45;;;9.80;;
63114;SDS011;49208;50.874;6.466;2024-02-26T15:11:51;16.38;;;9.18;;
63114;SDS011;49208;50.874;6.466;2024-02-26T15:14:17;18.65;;;9.43;;
63114;SDS011;49208;50.874;6.466;2024-02-26T15:16:43;15.55;;;9.90;;
63114;SDS011;49208;50.874;6.466;2024-02-26T15:19:08;17.88;;;9.73;;
63114;SDS011;49208;50.874;6.466;2024-02-26T15:21:34;14.40;;;9.15;;
63114;SDS011;49208;50.874;6.466;2024-02-26T15:23:59;15.50;;;9.95;;
63114;SDS011;49208;50.874;6.466;2024-02-26T15:26:24;17.17;;;9.98;;
63114;SDS011;49208;50.874;6.466;2024-02-26T15:28:51;16.50;;;10.52;;
63114;SDS011;49208;50.874;6.466;2024-02-26T15:31:17;17.48;;;10.23;;
63114;SDS011;49208;50.874;6.466;2024-02-26T15:33:42;14.70;;;9.50;;
63114;SDS011;49208;50.874;6.466;2024-02-26T15:36:08;20.75;;;9.65;;
63114;SDS011;49208;50.874;6.466;2024-02-26T15:38:37;18.08;;;10.27;;
63114;SDS011;49208;50.874;6.466;2024-02-26T15:41:10;16.35;;;9.55;;
63114;SDS011;49208;50.874;6.466;2024-02-26T15:43:37;15.75;;;10.93;;
63114;SDS011;49208;50.874;6.466;2024-02-26T15:46:02;20.58;;;10.88;;
63114;SDS011;49208;50.874;6.466;2024-02-26T15:48:28;22.00;;;10.20;;
63114;SDS011;49208;50.874;6.466;2024-02-26T15:50:53;15.18;;;9.98;;
63114;SDS011;49208;50.874;6.466;2024-02-26T15:53:19;13.23;;;8.88;;
63114;SDS011;49208;50.874;6.466;2024-02-26T15:55:44;16.70;;;9.85;;
63114;SDS011;49208;50.874;6.466;2024-02-26T15:58:09;19.50;;;10.82;;
63114;SDS011;49208;50.874;6.466;2024-02-26T16:00:38;17.45;;;9.80;;
63114;SDS011;49208;50.874;6.466;2024-02-26T16:03:05;19.98;;;10.38;;
63114;SDS011;49208;50.874;6.466;2024-02-26T16:05:31;17.92;;;10.00;;
63114;SDS011;49208;50.874;6.466;2024-02-26T16:07:56;16.92;;;10.35;;
63114;SDS011;49208;50.874;6.466;2024-02-26T16:10:25;18.85;;;10.65;;
63114;SDS011;49208;50.874;6.466;2024-02-26T16:12:53;17.13;;;9.68;;
63114;SDS011;49208;50.874;6.466;2024-02-26T16:15:21;15.75;;;9.82;;
63114;SDS011;49208;50.874;6.466;2024-02-26T16:17:47;14.07;;;9.57;;
63114;SDS011;49208;50.874;6.466;2024-02-26T16:20:16;17.58;;;10.18;;
63114;SDS011;49208;50.874;6.466;2024-02-26T16:25:11;15.70;;;9.40;;
63114;SDS011;49208;50.874;6.466;2024-02-26T16:27:37;16.83;;;9.57;;
63114;SDS011;49208;50.874;6.466;2024-02-26T16:30:03;16.45;;;9.35;;
63114;SDS011;49208;50.874;6.466;2024-02-26T16:32:30;16.30;;;9.23;;
63114;SDS011;49208;50.874;6.466;2024-02-26T16:34:58;16.20;;;8.33;;
63114;SDS011;49208;50.874;6.466;2024-02-26T16:37:24;15.02;;;9.40;;
63114;SDS011;49208;50.874;6.466;2024-02-26T16:39:50;14.18;;;8.07;;
63114;SDS011;49208;50.874;6.466;2024-02-26T16:42:15;12.88;;;8.23;;
63114;SDS011;49208;50.874;6.466;2024-02-26T16:44:41;16.38;;;8.80;;
63114;SDS011;49208;50.874;6.466;2024-02-26T16:47:06;14.20;;;8.45;;
63114;SDS011;49208;50.874;6.466;2024-02-26T16:49:32;16.30;;;10.90;;
63114;SDS011;49208;50.874;6.466;2024-02-26T16:51:58;15.07;;;8.75;;
63114;SDS011;49208;50.874;6.466;2024-02-26T16:54:23;13.55;;;7.88;;
63114;SDS011;49208;50.874;6.466;2024-02-26T16:56:49;14.55;;;8.35;;
63114;SDS011;49208;50.874;6.466;2024-02-26T16:59:15;12.27;;;7.32;;
63114;SDS011;49208;50.874;6.466;2024-02-26T17:01:50;15.17;;;7.27;;
63114;SDS011;49208;50.874;6.466;2024-02-26T17:04:15;13.52;;;7.22;;
63114;SDS011;49208;50.874;6.466;2024-02-26T17:06:41;16.60;;;8.18;;
63114;SDS011;49208;50.874;6.466;2024-02-26T17:09:07;11.98;;;7.47;;
63114;SDS011;49208;50.874;6.466;2024-02-26T17:11:36;11.90;;;7.32;;
63114;SDS011;49208;50.874;6.466;2024-02-26T17:14:03;9.85;;;6.05;;
63114;SDS011;49208;50.874;6.466;2024-02-26T17:16:30;13.57;;;7.13;;
63114;SDS011;49208;50.874;6.466;2024-02-26T17:18:56;12.82;;;7.22;;
63114;SDS011;49208;50.874;6.466;2024-02-26T17:21:21;13.90;;;7.50;;
63114;SDS011;49208;50.874;6.466;2024-02-26T17:23:48;12.02;;;7.15;;
63114;SDS011;49208;50.874;6.466;2024-02-26T17:26:17;11.75;;;6.60;;
63114;SDS011;49208;50.874;6.466;2024-02-26T17:28:46;10.10;;;6.70;;
63114;SDS011;49208;50.874;6.466;2024-02-26T17:31:12;10.00;;;5.82;;
63114;SDS011;49208;50.874;6.466;2024-02-26T17:33:38;10.18;;;6.10;;
63114;SDS011;49208;50.874;6.466;2024-02-26T17:36:04;10.38;;;5.47;;
63114;SDS011;49208;50.874;6.466;2024-02-26T17:38:30;10.68;;;5.82;;
63114;SDS011;49208;50.874;6.466;2024-02-26T17:40:56;9.82;;;5.70;;
63114;SDS011;49208;50.874;6.466;2024-02-26T17:43:21;14.52;;;5.53;;
63114;SDS011;49208;50.874;6.466;2024-02-26T17:45:46;10.23;;;5.72;;
63114;SDS011;49208;50.874;6.466;2024-02-26T17:48:12;9.05;;;5.72;;
63114;SDS011;49208;50.874;6.466;2024-02-26T17:50:38;9.93;;;6.05;;
63114;SDS011;49208;50.874;6.466;2024-02-26T17:53:04;11.35;;;6.43;;
63114;SDS011;49208;50.874;6.466;2024-02-26T17:55:29;9.10;;;5.28;;
63114;SDS011;49208;50.874;6.466;2024-02-26T17:57:54;9.73;;;6.15;;
63114;SDS011;49208;50.874;6.466;2024-02-26T18:00:20;13.18;;;6.28;;
63114;SDS011;49208;50.874;6.466;2024-02-26T18:02:46;12.70;;;6.90;;
63114;SDS011;49208;50.874;6.466;2024-02-26T18:05:11;10.52;;;5.50;;
63114;SDS011;49208;50.874;6.466;2024-02-26T18:07:37;9.90;;;5.70;;
63114;SDS011;49208;50.874;6.466;2024-02-26T18:10:03;13.57;;;6.60;;
63114;SDS011;49208;50.874;6.466;2024-02-26T18:12:36;12.73;;;6.18;;
63114;SDS011;49208;50.874;6.466;2024-02-26T18:15:02;11.95;;;6.10;;
63114;SDS011;49208;50.874;6.466;2024-02-26T18:17:29;14.68;;;6.53;;
63114;SDS011;49208;50.874;6.466;2024-02-26T18:19:55;9.73;;;5.85;;
63114;SDS011;49208;50.874;6.466;2024-02-26T18:22:21;8.80;;;5.68;;
63114;SDS011;49208;50.874;6.466;2024-02-26T18:24:46;8.85;;;5.43;;
63114;SDS011;49208;50.874;6.466;2024-02-26T18:27:11;9.07;;;5.00;;
63114;SDS011;49208;50.874;6.466;2024-02-26T18:29:37;11.88;;;6.00;;
63114;SDS011;49208;50.874;6.466;2024-02-26T18:32:02;9.93;;;6.90;;
63114;SDS011;49208;50.874;6.466;2024-02-26T18:34:28;10.23;;;5.43;;
63114;SDS011;49208;50.874;6.466;2024-02-26T18:36:53;9.07;;;5.18;;
63114;SDS011;49208;50.874;6.466;2024-02-26T18:39:19;9.27;;;5.43;;
63114;SDS011;49208;50.874;6.466;2024-02-26T18:41:44;10.82;;;6.25;;
63114;SDS011;49208;50.874;6.466;2024-02-26T18:44:10;8.85;;;5.75;;
63114;SDS011;49208;50.874;6.466;2024-02-26T18:46:42;9.77;;;6.50;;
63114;SDS011;49208;50.874;6.466;2024-02-26T18:49:10;10.65;;;6.03;;
63114;SDS011;49208;50.874;6.466;2024-02-26T18:51:36;10.70;;;6.10;;
63114;SDS011;49208;50.874;6.466;2024-02-26T18:54:01;10.80;;;6.85;;
63114;SDS011;49208;50.874;6.466;2024-02-26T18:56:27;9.15;;;5.75;;
63114;SDS011;49208;50.874;6.466;2024-02-26T18:58:52;9.32;;;5.95;;
63114;SDS011;49208;50.874;6.466;2024-02-26T19:01:18;9.18;;;5.75;;
63114;SDS011;49208;50.874;6.466;2024-02-26T19:03:43;9.27;;;5.80;;
63114;SDS011;49208;50.874;6.466;2024-02-26T19:06:09;11.35;;;5.93;;
63114;SDS011;49208;50.874;6.466;2024-02-26T19:08:34;9.95;;;6.28;;
63114;SDS011;49208;50.874;6.466;2024-02-26T19:11:01;9.43;;;5.70;;
63114;SDS011;49208;50.874;6.466;2024-02-26T19:13:28;10.68;;;6.68;;
63114;SDS011;49208;50.874;6.466;2024-02-26T19:15:53;10.63;;;6.25;;
63114;SDS011;49208;50.874;6.466;2024-02-26T19:18:19;10.75;;;6.40;;
63114;SDS011;49208;50.874;6.466;2024-02-26T19:20:44;13.43;;;6.57;;
63114;SDS011;49208;50.874;6.466;2024-02-26T19:25:38;13.15;;;6.85;;
63114;SDS011;49208;50.874;6.466;2024-02-26T19:28:04;9.43;;;6.45;;
63114;SDS011;49208;50.874;6.466;2024-02-26T19:30:29;12.35;;;6.25;;
63114;SDS011;49208;50.874;6.466;2024-02-26T19:32:55;15.30;;;6.22;;
63114;SDS011;49208;50.874;6.466;2024-02-26T19:35:20;10.55;;;6.00;;
63114;SDS011;49208;50.874;6.466;2024-02-26T19:37:46;10.52;;;6.57;;
63114;SDS011;49208;50.874;6.466;2024-02-26T19:40:11;8.18;;;5.45;;
63114;SDS011;49208;50.874;6.466;2024-02-26T19:42:37;9.70;;;6.03;;
63114;SDS011;49208;50.874;6.466;2024-02-26T19:45:02;9.80;;;6.30;;
63114;SDS011;49208;50.874;6.466;2024-02-26T19:47:29;11.82;;;5.95;;
63114;SDS011;49208;50.874;6.466;2024-02-26T19:49:54;10.50;;;5.85;;
63114;SDS011;49208;50.874;6.466;2024-02-26T19:52:20;9.32;;;5.80;;
63114;SDS011;49208;50.874;6.466;2024-02-26T19:54:45;10.80;;;6.15;;
63114;SDS011;49208;50.874;6.466;2024-02-26T19:57:11;8.65;;;5.60;;
63114;SDS011;49208;50.874;6.466;2024-02-26T19:59:36;8.13;;;5.65;;
63114;SDS011;49208;50.874;6.466;2024-02-26T20:02:02;8.30;;;5.63;;
63114;SDS011;49208;50.874;6.466;2024-02-26T20:04:27;7.93;;;5.13;;
63114;SDS011;49208;50.874;6.466;2024-02-26T20:06:53;10.57;;;5.88;;
63114;SDS011;49208;50.874;6.466;2024-02-26T20:09:18;9.77;;;5.88;;
63114;SDS011;49208;50.874;6.466;2024-02-26T20:11:46;10.40;;;5.65;;
63114;SDS011;49208;50.874;6.466;2024-02-26T20:14:12;8.25;;;5.30;;
63114;SDS011;49208;50.874;6.466;2024-02-26T20:16:39;9.30;;;5.25;;
63114;SDS011;49208;50.874;6.466;2024-02-26T20:19:04;9.80;;;6.30;;
63114;SDS011;49208;50.874;6.466;2024-02-26T20:21:37;10.23;;;5.25;;
63114;SDS011;49208;50.874;6.466;2024-02-26T20:24:06;8.32;;;5.25;;
63114;SDS011;49208;50.874;6.466;2024-02-26T20:26:34;8.07;;;5.07;;
63114;SDS011;49208;50.874;6.466;2024-02-26T20:29:00;9.15;;;5.03;;
63114;SDS011;49208;50.874;6.466;2024-02-26T20:31:25;9.68;;;5.30;;
63114;SDS011;49208;50.874;6.466;2024-02-26T20:33:51;11.95;;;6.13;;
63114;SDS011;49208;50.874;6.466;2024-02-26T20:36:17;8.63;;;5.50;;
63114;SDS011;49208;50.874;6.466;2024-02-26T20:38:42;9.18;;;5.63;;
63114;SDS011;49208;50.874;6.466;2024-02-26T20:41:08;8.57;;;5.43;;
63114;SDS011;49208;50.874;6.466;2024-02-26T20:43:33;7.95;;;5.10;;
63114;SDS011;49208;50.874;6.466;2024-02-26T20:46:00;8.35;;;5.70;;
63114;SDS011;49208;50.874;6.466;2024-02-26T20:48:26;9.18;;;6.15;;
63114;SDS011;49208;50.874;6.466;2024-02-26T20:50:51;8.35;;;5.60;;
63114;SDS011;49208;50.874;6.466;2024-02-26T20:53:17;10.68;;;5.45;;
63114;SDS011;49208;50.874;6.466;2024-02-26T20:55:43;8.85;;;6.07;;
63114;SDS011;49208;50.874;6.466;2024-02-26T20:58:09;8.18;;;5.10;;
63114;SDS011;49208;50.874;6.466;2024-02-26T21:00:34;8.25;;;5.32;;
63114;SDS011;49208;50.874;6.466;2024-02-26T21:03:01;11.40;;;6.07;;
63114;SDS011;49208;50.874;6.466;2024-02-26T21:05:36;10.95;;;5.85;;
63114;SDS011;49208;50.874;6.466;2024-02-26T21:08:02;11.30;;;6.43;;
63114;SDS011;49208;50.874;6.466;2024-02-26T21:10:28;12.88;;;7.40;;
63114;SDS011;49208;50.874;6.466;2024-02-26T21:12:54;11.95;;;6.55;;
63114;SDS011;49208;50.874;6.466;2024-02-26T21:15:20;11.25;;;6.97;;
63114;SDS011;49208;50.874;6.466;2024-02-26T21:17:47;14.18;;;8.00;;
63114;SDS011;49208;50.874;6.466;2024-02-26T21:20:12;11.85;;;7.15;;
63114;SDS011;49208;50.874;6.466;2024-02-26T21:22:39;12.32;;;8.25;;
63114;SDS011;49208;50.874;6.466;2024-02-26T21:25:08;15.18;;;8.95;;
63114;SDS011;49208;50.874;6.466;2024-02-26T21:27:34;13.77;;;8.85;;
63114;SDS011;49208;50.874;6.466;2024-02-26T21:29:59;15.45;;;9.15;;
63114;SDS011;49208;50.874;6.466;2024-02-26T21:32:25;13.05;;;8.90;;
63114;SDS011;49208;50.874;6.466;2024-02-26T21:34:50;15.52;;;9.43;;
63114;SDS011;49208;50.874;6.466;2024-02-26T21:37:15;17.15;;;9.55;;
63114;SDS011;49208;50.874;6.466;2024-02-26T21:39:41;16.98;;;10.57;;
63114;SDS011;49208;50.874;6.466;2024-02-26T21:42:06;16.38;;;9.45;;
63114;SDS011;49208;50.874;6.466;2024-02-26T21:44:31;17.08;;;10.27;;
63114;SDS011;49208;50.874;6.466;2024-02-26T21:46:57;16.58;;;9.48;;
63114;SDS011;49208;50.874;6.466;2024-02-26T21:49:22;15.73;;;9.30;;
63114;SDS011;49208;50.874;6.466;2024-02-26T21:51:48;18.45;;;10.02;;